Time;durP1;ratioP1;P1;durP2;ratioP2;P2;SDS_P1;SDS_P2;PMS_P1;PMS_P2;Temp;Humidity;BMP_temperature;BMP_pressure;BME280_temperature;BME280_humidity;BME280_pressure;Samples;Min_cycle;Max_cycle;Signal;HPM_P1;HPM_P2
2022/06/15 00:00:42;;;;;;;;;;;11.20;99.90;;;;;;5073037;28;19935;-74
2022/06/15 00:03:09;;;;;;;;;;;11.10;99.90;;;;;;5072185;28;19919;-74
2022/06/15 00:05:34;;;;;;;;;;;11.10;99.90;;;;;;5071293;28;19944;-74
2022/06/15 00:08:00;;;;;;;;;;;11.00;99.90;;;;;;5073140;28;20001;-74
2022/06/15 00:10:25;;;;;;;;;;;11.00;99.90;;;;;;5072994;28;20013;-74
2022/06/15 00:12:51;;;;;;;;;;;10.90;99.90;;;;;;5080365;28;20273;-74
2022/06/15 00:15:17;;;;;;;;;;;10.80;99.90;;;;;;5071296;28;20450;-73
2022/06/15 00:17:43;;;;;;;;;;;10.80;99.90;;;;;;5072912;28;19909;-74
2022/06/15 00:20:09;;;;;;;;;;;10.60;99.90;;;;;;5072729;28;19912;-73
2022/06/15 00:22:34;;;;;;;;;;;10.60;99.90;;;;;;5072248;28;19969;-73
2022/06/15 00:25:00;;;;;;;;;;;10.70;99.90;;;;;;5071940;28;19908;-73
2022/06/15 00:27:25;;;;;;;;;;;10.80;99.90;;;;;;5070891;28;19915;-73
2022/06/15 00:29:51;;;;;;;;;;;10.80;99.90;;;;;;5074332;28;19982;-74
2022/06/15 00:32:16;;;;;;;;;;;10.80;99.90;;;;;;5078422;28;20392;-73
2022/06/15 00:34:42;;;;;;;;;;;10.70;99.90;;;;;;5071835;28;19915;-73
2022/06/15 00:37:07;;;;;;;;;;;10.70;99.90;;;;;;5072560;28;20361;-74
2022/06/15 00:39:34;;;;;;;;;;;10.60;99.90;;;;;;5072315;28;20189;-74
2022/06/15 00:42:00;;;;;;;;;;;10.50;99.90;;;;;;5075090;28;19954;-74
2022/06/15 00:44:29;;;;;;;;;;;10.50;99.90;;;;;;5079747;28;20406;-73
2022/06/15 00:46:56;;;;;;;;;;;10.40;99.90;;;;;;5072075;28;19947;-73
2022/06/15 00:49:30;;;;;;;;;;;10.40;99.90;;;;;;5072096;28;19908;-73
2022/06/15 00:51:58;;;;;;;;;;;10.50;99.90;;;;;;5070396;28;20454;-73
2022/06/15 00:54:24;;;;;;;;;;;10.60;99.90;;;;;;5071476;28;20022;-74
2022/06/15 00:56:50;;;;;;;;;;;10.50;99.90;;;;;;5071756;28;19955;-74
2022/06/15 00:59:18;;;;;;;;;;;10.40;99.90;;;;;;5072022;28;20392;-74
2022/06/15 01:01:44;;;;;;;;;;;10.40;99.90;;;;;;5071589;28;19909;-74
2022/06/15 01:04:10;;;;;;;;;;;10.30;99.90;;;;;;5071377;28;19999;-74
2022/06/15 01:06:35;;;;;;;;;;;10.20;99.90;;;;;;5071850;28;19908;-74
2022/06/15 01:09:09;;;;;;;;;;;10.20;99.90;;;;;;5071897;28;19908;-74
2022/06/15 01:11:53;;;;;;;;;;;10.30;99.90;;;;;;5070369;28;19909;-74
2022/06/15 01:14:35;;;;;;;;;;;10.20;99.90;;;;;;5082537;28;19909;-73
2022/06/15 01:17:19;;;;;;;;;;;10.10;99.90;;;;;;5074512;28;19908;-74
2022/06/15 01:19:44;;;;;;;;;;;10.20;99.90;;;;;;5071603;28;20413;-74
2022/06/15 01:22:25;;;;;;;;;;;10.20;99.90;;;;;;5071212;28;19916;-74
2022/06/15 01:24:52;;;;;;;;;;;10.30;99.90;;;;;;5070995;28;19908;-73
2022/06/15 01:27:33;;;;;;;;;;;10.40;99.90;;;;;;5071415;28;19944;-74
2022/06/15 01:30:14;;;;;;;;;;;10.30;99.90;;;;;;5085521;28;19912;-74
2022/06/15 01:32:45;;;;;;;;;;;10.10;99.90;;;;;;5090450;28;19909;-73
2022/06/15 01:35:19;;;;;;;;;;;9.90;99.90;;;;;;5090450;28;20369;-74
2022/06/15 01:37:53;;;;;;;;;;;10.00;99.90;;;;;;5090909;28;19974;-74
2022/06/15 01:40:18;;;;;;;;;;;10.10;99.90;;;;;;5090684;28;20081;-74
2022/06/15 01:43:05;;;;;;;;;;;10.10;99.90;;;;;;5080569;28;20014;-74
2022/06/15 01:45:34;;;;;;;;;;;10.20;99.90;;;;;;5071946;28;19908;-74
2022/06/15 01:48:02;;;;;;;;;;;10.30;99.90;;;;;;5071356;28;19915;-73
2022/06/15 01:50:31;;;;;;;;;;;10.10;99.90;;;;;;5071725;28;19916;-74
2022/06/15 01:52:59;;;;;;;;;;;9.90;99.90;;;;;;5070680;28;20361;-74
2022/06/15 01:55:49;;;;;;;;;;;10.00;99.90;;;;;;5071038;28;19908;-74
2022/06/15 01:58:16;;;;;;;;;;;10.00;99.90;;;;;;5071197;28;20316;-74
2022/06/15 02:00:46;;;;;;;;;;;10.00;99.90;;;;;;5071235;28;19920;-74
2022/06/15 02:03:14;;;;;;;;;;;10.00;99.90;;;;;;5070226;28;19912;-74
2022/06/15 02:05:48;;;;;;;;;;;9.90;99.90;;;;;;5071207;28;20020;-73
2022/06/15 02:08:22;;;;;;;;;;;9.90;99.90;;;;;;5071326;28;20384;-74
2022/06/15 02:10:53;;;;;;;;;;;9.80;99.90;;;;;;5084367;28;20349;-74
2022/06/15 02:13:23;;;;;;;;;;;9.80;99.90;;;;;;5081579;28;19953;-74
2022/06/15 02:15:51;;;;;;;;;;;9.60;99.90;;;;;;5073897;28;20279;-73
2022/06/15 02:18:18;;;;;;;;;;;9.60;99.90;;;;;;5071240;28;19915;-73
2022/06/15 02:20:50;;;;;;;;;;;9.60;99.90;;;;;;5071125;28;19919;-74
2022/06/15 02:23:16;;;;;;;;;;;9.50;99.90;;;;;;5070182;28;20385;-73
2022/06/15 02:25:43;;;;;;;;;;;9.50;99.90;;;;;;5076778;28;19908;-73
2022/06/15 02:28:10;;;;;;;;;;;9.40;99.90;;;;;;5073312;28;19916;-74
2022/06/15 02:30:36;;;;;;;;;;;9.50;99.90;;;;;;5075034;28;19961;-73
2022/06/15 02:33:03;;;;;;;;;;;9.40;99.90;;;;;;5074321;28;19908;-74
2022/06/15 02:35:28;;;;;;;;;;;9.30;99.90;;;;;;5074514;28;20365;-74
2022/06/15 02:37:54;;;;;;;;;;;9.30;99.90;;;;;;5074854;28;19915;-73
2022/06/15 02:40:21;;;;;;;;;;;9.30;99.90;;;;;;5074802;28;20293;-74
2022/06/15 02:42:47;;;;;;;;;;;9.20;99.90;;;;;;5080691;28;19915;-73
2022/06/15 02:45:17;;;;;;;;;;;9.20;99.90;;;;;;5078290;28;20175;-73
2022/06/15 02:47:42;;;;;;;;;;;9.20;99.90;;;;;;5074635;28;19971;-73
2022/06/15 02:50:09;;;;;;;;;;;9.20;99.90;;;;;;5074555;28;19926;-74
2022/06/15 02:52:37;;;;;;;;;;;9.10;99.90;;;;;;5074083;28;19908;-74
2022/06/15 02:55:03;;;;;;;;;;;9.10;99.90;;;;;;5071351;28;20316;-73
2022/06/15 02:57:29;;;;;;;;;;;9.10;99.90;;;;;;5073804;28;19909;-73
2022/06/15 02:59:55;;;;;;;;;;;9.20;99.90;;;;;;5074277;28;20412;-73
2022/06/15 03:02:21;;;;;;;;;;;9.10;99.90;;;;;;5073855;28;19908;-74
2022/06/15 03:04:47;;;;;;;;;;;9.10;99.90;;;;;;5073600;28;19930;-74
2022/06/15 03:07:13;;;;;;;;;;;9.00;99.90;;;;;;5073036;28;19951;-74
2022/06/15 03:09:39;;;;;;;;;;;9.00;99.90;;;;;;5074223;28;19987;-74
2022/06/15 03:12:05;;;;;;;;;;;9.00;99.90;;;;;;5078825;28;19995;-73
2022/06/15 03:14:31;;;;;;;;;;;9.10;99.90;;;;;;5078540;28;19915;-73
2022/06/15 03:16:57;;;;;;;;;;;9.10;99.90;;;;;;5074619;28;20354;-73
2022/06/15 03:19:22;;;;;;;;;;;9.00;99.90;;;;;;5072745;28;20369;-73
2022/06/15 03:21:48;;;;;;;;;;;8.90;99.90;;;;;;5073549;28;19923;-74
2022/06/15 03:24:13;;;;;;;;;;;8.90;99.90;;;;;;5073383;28;20290;-73
2022/06/15 03:26:39;;;;;;;;;;;8.90;99.90;;;;;;5073751;28;19908;-73
2022/06/15 03:29:05;;;;;;;;;;;9.00;99.90;;;;;;5073671;28;19915;-73
2022/06/15 03:31:31;;;;;;;;;;;9.00;99.90;;;;;;5073386;28;20273;-73
2022/06/15 03:33:57;;;;;;;;;;;8.90;99.90;;;;;;5073333;28;19909;-73
2022/06/15 03:36:22;;;;;;;;;;;8.80;99.90;;;;;;5073732;28;19954;-73
2022/06/15 03:38:48;;;;;;;;;;;8.90;99.90;;;;;;5072698;28;19999;-73
2022/06/15 03:41:14;;;;;;;;;;;9.00;99.90;;;;;;5072990;28;19915;-76
2022/06/15 03:43:40;;;;;;;;;;;9.00;99.90;;;;;;5084023;28;20365;-75
2022/06/15 03:46:05;;;;;;;;;;;9.10;99.90;;;;;;5079817;28;19954;-73
2022/06/15 03:48:31;;;;;;;;;;;9.10;99.90;;;;;;5077443;28;19912;-73
2022/06/15 03:50:56;;;;;;;;;;;9.30;99.90;;;;;;5073373;28;19912;-75
2022/06/15 03:53:22;;;;;;;;;;;9.40;99.90;;;;;;5072545;28;19958;-73
2022/06/15 03:55:48;;;;;;;;;;;9.50;99.90;;;;;;5073283;28;20369;-73
2022/06/15 03:58:14;;;;;;;;;;;9.60;99.90;;;;;;5074860;28;19919;-73
2022/06/15 04:00:40;;;;;;;;;;;9.80;99.90;;;;;;5083918;28;19920;-73
2022/06/15 04:03:06;;;;;;;;;;;9.90;99.90;;;;;;5072439;28;19912;-73
2022/06/15 04:05:33;;;;;;;;;;;9.80;99.90;;;;;;5073613;28;20011;-73
2022/06/15 04:10:43;;;;;;;;;;;10.20;99.90;;;;;;5073222;28;20392;-73
2022/06/15 04:13:08;;;;;;;;;;;10.50;99.90;;;;;;5079779;28;19909;-73
2022/06/15 04:15:34;;;;;;;;;;;10.60;99.90;;;;;;5079049;28;19909;-73
2022/06/15 04:17:59;;;;;;;;;;;10.80;99.90;;;;;;5073194;28;19912;-74
2022/06/15 04:20:32;;;;;;;;;;;10.90;99.90;;;;;;5071803;28;19913;-73
2022/06/15 04:23:01;;;;;;;;;;;11.00;99.90;;;;;;5072324;28;19926;-74
2022/06/15 04:25:27;;;;;;;;;;;11.10;99.90;;;;;;5072366;28;19985;-73
2022/06/15 04:27:53;;;;;;;;;;;11.20;99.90;;;;;;5072807;28;20008;-73
2022/06/15 04:30:18;;;;;;;;;;;11.30;99.90;;;;;;5072855;28;20006;-73
2022/06/15 04:32:44;;;;;;;;;;;11.30;99.90;;;;;;5072339;28;19912;-73
2022/06/15 04:35:10;;;;;;;;;;;11.30;99.90;;;;;;5075492;28;19915;-74
2022/06/15 04:37:37;;;;;;;;;;;11.50;99.90;;;;;;5091973;28;19908;-73
2022/06/15 04:40:03;;;;;;;;;;;11.60;99.90;;;;;;5091930;28;19912;-73
2022/06/15 04:42:29;;;;;;;;;;;11.60;99.90;;;;;;5084460;28;20288;-73
2022/06/15 04:44:54;;;;;;;;;;;11.60;99.90;;;;;;5076739;28;19909;-73
2022/06/15 04:47:20;;;;;;;;;;;11.50;99.90;;;;;;5072619;28;19943;-73
2022/06/15 04:49:45;;;;;;;;;;;11.60;99.90;;;;;;5072446;28;19908;-73
2022/06/15 04:52:11;;;;;;;;;;;11.60;99.90;;;;;;5071858;28;19954;-73
2022/06/15 04:54:36;;;;;;;;;;;11.90;99.90;;;;;;5071263;28;19909;-73
2022/06/15 04:57:02;;;;;;;;;;;12.00;99.90;;;;;;5072497;28;20380;-75
2022/06/15 04:59:27;;;;;;;;;;;12.10;99.90;;;;;;5072097;28;19978;-73
2022/06/15 05:01:53;;;;;;;;;;;12.10;99.90;;;;;;5071767;28;19909;-73
2022/06/15 05:04:18;;;;;;;;;;;12.20;99.90;;;;;;5071418;28;20001;-73
2022/06/15 05:06:44;;;;;;;;;;;12.20;99.90;;;;;;5072148;28;19915;-73
2022/06/15 05:09:11;;;;;;;;;;;12.20;99.90;;;;;;5072083;28;19908;-73
2022/06/15 05:11:37;;;;;;;;;;;12.30;99.90;;;;;;5071666;28;19912;-73
2022/06/15 05:14:03;;;;;;;;;;;12.40;99.90;;;;;;5088034;28;19915;-73
2022/06/15 05:16:29;;;;;;;;;;;12.40;99.90;;;;;;5075358;28;19912;-73
2022/06/15 05:18:54;;;;;;;;;;;12.50;99.90;;;;;;5083509;28;19982;-72
2022/06/15 05:21:20;;;;;;;;;;;12.50;99.90;;;;;;5079390;28;19920;-72
2022/06/15 05:23:45;;;;;;;;;;;12.90;99.90;;;;;;5084387;28;19908;-72
2022/06/15 05:26:11;;;;;;;;;;;13.10;99.90;;;;;;5078806;28;20383;-73
2022/06/15 05:28:38;;;;;;;;;;;13.10;99.90;;;;;;5078534;28;19915;-75
2022/06/15 05:31:10;;;;;;;;;;;13.10;99.90;;;;;;5074945;28;20197;-73
2022/06/15 05:33:36;;;;;;;;;;;13.50;99.90;;;;;;5076754;28;19918;-76
2022/06/15 05:36:09;;;;;;;;;;;13.70;99.90;;;;;;5070167;28;19914;-73
2022/06/15 05:38:35;;;;;;;;;;;13.80;99.90;;;;;;5070405;28;19909;-73
2022/06/15 05:41:01;;;;;;;;;;;13.90;99.90;;;;;;5071089;28;20335;-74
2022/06/15 05:43:26;;;;;;;;;;;13.80;99.90;;;;;;5076386;28;19962;-73
2022/06/15 05:45:52;;;;;;;;;;;14.00;99.90;;;;;;5071310;28;19916;-73
2022/06/15 05:48:17;;;;;;;;;;;14.30;99.90;;;;;;5078347;28;20392;-76
2022/06/15 05:50:43;;;;;;;;;;;14.60;99.90;;;;;;5079424;28;19954;-73
2022/06/15 05:53:08;;;;;;;;;;;15.50;99.90;;;;;;5074997;28;19908;-73
2022/06/15 05:55:34;;;;;;;;;;;16.90;99.90;;;;;;5086333;28;19909;-73
2022/06/15 05:57:59;;;;;;;;;;;17.90;99.90;;;;;;5071113;28;19967;-73
2022/06/15 06:00:25;;;;;;;;;;;18.70;99.90;;;;;;5070232;28;19916;-73
2022/06/15 06:02:51;;;;;;;;;;;19.10;99.90;;;;;;5079908;28;19912;-74
2022/06/15 06:05:16;;;;;;;;;;;19.50;99.90;;;;;;5085125;28;20300;-73
2022/06/15 06:07:42;;;;;;;;;;;19.80;99.90;;;;;;5074043;28;19916;-74
2022/06/15 06:10:08;;;;;;;;;;;20.10;99.90;;;;;;5075264;28;20379;-73
2022/06/15 06:12:33;;;;;;;;;;;20.10;99.90;;;;;;5077967;28;19908;-73
2022/06/15 06:14:59;;;;;;;;;;;20.20;99.90;;;;;;5082848;28;19909;-73
2022/06/15 06:17:24;;;;;;;;;;;20.20;99.90;;;;;;5078707;28;19909;-74
2022/06/15 06:19:50;;;;;;;;;;;20.40;99.80;;;;;;5077340;28;20349;-74
2022/06/15 06:22:15;;;;;;;;;;;20.80;98.70;;;;;;5074006;28;20239;-74
2022/06/15 06:24:41;;;;;;;;;;;20.40;98.70;;;;;;5074177;28;19909;-74
2022/06/15 06:27:07;;;;;;;;;;;19.40;99.90;;;;;;5074450;28;19908;-75
2022/06/15 06:29:33;;;;;;;;;;;19.40;99.90;;;;;;5074549;28;19940;-74
2022/06/15 06:31:59;;;;;;;;;;;20.20;99.90;;;;;;5073729;28;19919;-74
2022/06/15 06:34:25;;;;;;;;;;;21.40;97.90;;;;;;5073894;28;19919;-74
2022/06/15 06:36:51;;;;;;;;;;;21.80;97.10;;;;;;5074131;28;19904;-74
2022/06/15 06:39:21;;;;;;;;;;;22.20;96.20;;;;;;5074283;28;20300;-74
2022/06/15 06:41:46;;;;;;;;;;;22.20;95.00;;;;;;5083244;28;20209;-74
2022/06/15 06:44:12;;;;;;;;;;;22.50;95.00;;;;;;5090745;28;19977;-74
2022/06/15 06:46:40;;;;;;;;;;;22.30;94.90;;;;;;5077448;28;19912;-74
2022/06/15 06:49:06;;;;;;;;;;;22.90;93.90;;;;;;5079765;28;20268;-73
2022/06/15 06:51:32;;;;;;;;;;;22.90;91.30;;;;;;5077325;28;19908;-74
2022/06/15 06:53:58;;;;;;;;;;;22.80;91.40;;;;;;5073410;28;19919;-74
2022/06/15 06:56:23;;;;;;;;;;;23.70;93.20;;;;;;5074123;28;20295;-74
2022/06/15 06:58:49;;;;;;;;;;;23.70;89.60;;;;;;5073821;28;20001;-73
2022/06/15 07:01:14;;;;;;;;;;;23.40;91.50;;;;;;5073495;28;20358;-74
2022/06/15 07:03:40;;;;;;;;;;;23.30;89.10;;;;;;5073371;28;19975;-74
2022/06/15 07:06:06;;;;;;;;;;;23.40;88.50;;;;;;5075732;28;20156;-74
2022/06/15 07:08:32;;;;;;;;;;;23.20;86.50;;;;;;5073745;28;19912;-77
2022/06/15 07:10:58;;;;;;;;;;;23.30;86.80;;;;;;5072166;28;19938;-74
2022/06/15 07:13:23;;;;;;;;;;;24.00;82.70;;;;;;5079280;28;19908;-76
2022/06/15 07:15:49;;;;;;;;;;;23.90;81.60;;;;;;5073728;28;20520;-74
2022/06/15 07:18:14;;;;;;;;;;;23.90;85.80;;;;;;5073810;28;19978;-73
2022/06/15 07:20:40;;;;;;;;;;;23.70;80.60;;;;;;5073751;28;19913;-74
2022/06/15 07:23:06;;;;;;;;;;;23.50;84.10;;;;;;5072416;28;19916;-76
2022/06/15 07:25:31;;;;;;;;;;;23.70;84.00;;;;;;5073431;28;19961;-73
2022/06/15 07:27:57;;;;;;;;;;;24.30;82.90;;;;;;5073490;28;19909;-74
2022/06/15 07:30:23;;;;;;;;;;;24.10;82.00;;;;;;5073406;28;19908;-74
2022/06/15 07:32:49;;;;;;;;;;;24.80;79.30;;;;;;5072966;28;20288;-73
2022/06/15 07:35:17;;;;;;;;;;;24.40;80.90;;;;;;5072916;28;19909;-74
2022/06/15 07:37:43;;;;;;;;;;;24.50;79.60;;;;;;5073893;28;19915;-74
2022/06/15 07:40:09;;;;;;;;;;;24.70;78.90;;;;;;5073484;28;19912;-74
2022/06/15 07:42:35;;;;;;;;;;;24.40;78.90;;;;;;5079374;28;19916;-74
2022/06/15 07:45:00;;;;;;;;;;;24.40;80.10;;;;;;5079717;28;20273;-74
2022/06/15 07:50:10;;;;;;;;;;;26.50;81.70;;;;;;5075421;28;20272;-74
2022/06/15 07:52:38;;;;;;;;;;;26.70;78.10;;;;;;5084968;28;20472;-74
2022/06/15 07:55:05;;;;;;;;;;;26.70;75.80;;;;;;5072622;28;19915;-74
2022/06/15 07:57:31;;;;;;;;;;;26.40;79.30;;;;;;5072428;28;20007;-74
2022/06/15 07:59:56;;;;;;;;;;;26.00;77.60;;;;;;5077870;28;20054;-76
2022/06/15 08:02:22;;;;;;;;;;;25.60;79.20;;;;;;5079163;28;19912;-74
2022/06/15 08:04:47;;;;;;;;;;;26.20;75.10;;;;;;5073878;28;20365;-74
2022/06/15 08:07:14;;;;;;;;;;;27.30;79.40;;;;;;5072977;28;19913;-76
2022/06/15 08:09:41;;;;;;;;;;;28.00;73.20;;;;;;5088184;28;19915;-74
2022/06/15 08:12:16;;;;;;;;;;;28.50;71.20;;;;;;5084650;28;19970;-74
2022/06/15 08:14:43;;;;;;;;;;;28.70;67.40;;;;;;5079756;28;19909;-74
2022/06/15 08:17:17;;;;;;;;;;;27.00;70.50;;;;;;5072955;28;19930;-76
2022/06/15 08:19:44;;;;;;;;;;;27.10;72.20;;;;;;5072672;28;19917;-75
2022/06/15 08:22:11;;;;;;;;;;;27.40;72.40;;;;;;5072236;28;19916;-74
2022/06/15 08:24:37;;;;;;;;;;;27.40;69.30;;;;;;5071035;28;20411;-74
2022/06/15 08:27:03;;;;;;;;;;;27.20;69.60;;;;;;5072406;28;19914;-75
2022/06/15 08:29:29;;;;;;;;;;;27.30;76.10;;;;;;5072397;28;20364;-75
2022/06/15 08:31:57;;;;;;;;;;;28.90;74.30;;;;;;5070911;28;20007;-75
2022/06/15 08:34:27;;;;;;;;;;;29.60;70.30;;;;;;5071442;28;19953;-75
2022/06/15 08:36:53;;;;;;;;;;;30.30;69.40;;;;;;5077812;28;20006;-75
2022/06/15 08:39:18;;;;;;;;;;;29.80;67.00;;;;;;5071959;28;19967;-75
2022/06/15 08:41:51;;;;;;;;;;;30.10;62.30;;;;;;5075324;28;19908;-75
2022/06/15 08:44:16;;;;;;;;;;;30.40;63.00;;;;;;5080060;28;19908;-75
2022/06/15 08:46:45;;;;;;;;;;;30.00;63.20;;;;;;5072453;28;20389;-75
2022/06/15 08:49:19;;;;;;;;;;;30.30;62.20;;;;;;5076156;28;20286;-75
2022/06/15 08:51:46;;;;;;;;;;;30.90;63.60;;;;;;5088062;28;19916;-75
2022/06/15 08:54:22;;;;;;;;;;;30.20;63.00;;;;;;5071827;28;19908;-75
2022/06/15 08:57:11;;;;;;;;;;;30.70;64.60;;;;;;5072341;28;19954;-75
2022/06/15 08:59:43;;;;;;;;;;;30.20;61.70;;;;;;5058349;28;19919;-75
2022/06/15 09:02:09;;;;;;;;;;;29.90;67.20;;;;;;5091329;28;20289;-75
2022/06/15 09:04:46;;;;;;;;;;;30.30;66.70;;;;;;5090958;28;19915;-75
2022/06/15 09:07:30;;;;;;;;;;;31.20;64.60;;;;;;5091696;28;19908;-75
2022/06/15 09:10:14;;;;;;;;;;;31.50;66.70;;;;;;5091710;28;19908;-75
2022/06/15 09:12:59;;;;;;;;;;;30.90;68.20;;;;;;5084594;28;19912;-76
2022/06/15 09:15:57;;;;;;;;;;;30.80;65.50;;;;;;5079174;28;20004;-75
2022/06/15 09:18:35;;;;;;;;;;;31.00;67.60;;;;;;5052275;28;19954;-75
2022/06/15 09:21:07;;;;;;;;;;;31.20;68.20;;;;;;5090827;28;20018;-75
2022/06/15 09:23:38;;;;;;;;;;;31.00;65.10;;;;;;5082346;28;19995;-76
2022/06/15 09:26:18;;;;;;;;;;;29.80;60.80;;;;;;5076003;28;19913;-75
2022/06/15 09:28:46;;;;;;;;;;;30.40;64.80;;;;;;5071510;28;20288;-75
2022/06/15 09:31:16;;;;;;;;;;;30.90;66.20;;;;;;5071262;28;19958;-76
2022/06/15 09:33:51;;;;;;;;;;;30.20;62.70;;;;;;5071324;28;20338;-75
2022/06/15 09:36:22;;;;;;;;;;;29.30;64.50;;;;;;5084290;28;20365;-75
2022/06/15 09:38:48;;;;;;;;;;;30.00;66.90;;;;;;5090771;28;19912;-75
2022/06/15 09:41:18;;;;;;;;;;;29.50;61.80;;;;;;5089185;28;20426;-78
2022/06/15 09:43:49;;;;;;;;;;;29.90;72.60;;;;;;5077177;28;20335;-75
2022/06/15 09:46:21;;;;;;;;;;;29.90;60.90;;;;;;5080501;28;19909;-76
2022/06/15 09:48:46;;;;;;;;;;;31.00;65.70;;;;;;5073005;28;19909;-75
2022/06/15 09:51:12;;;;;;;;;;;31.40;65.60;;;;;;5088078;28;19933;-76
2022/06/15 09:53:44;;;;;;;;;;;31.80;64.00;;;;;;5072168;28;20389;-76
2022/06/15 09:56:13;;;;;;;;;;;32.00;65.10;;;;;;5074855;28;19909;-77
2022/06/15 09:58:42;;;;;;;;;;;30.40;60.20;;;;;;5071227;28;20365;-75
2022/06/15 10:01:08;;;;;;;;;;;30.80;63.10;;;;;;5070891;28;20082;-75
2022/06/15 10:03:36;;;;;;;;;;;31.50;65.20;;;;;;5091866;28;19912;-76
2022/06/15 10:06:14;;;;;;;;;;;31.60;68.70;;;;;;5073941;28;19919;-78
2022/06/15 10:08:40;;;;;;;;;;;30.90;63.80;;;;;;5071071;28;20350;-75
2022/06/15 10:11:12;;;;;;;;;;;30.00;59.90;;;;;;5071057;28;19999;-75
2022/06/15 10:13:38;;;;;;;;;;;31.00;72.00;;;;;;5083002;28;19934;-75
2022/06/15 10:16:05;;;;;;;;;;;31.60;64.00;;;;;;5072286;28;20456;-75
2022/06/15 10:18:30;;;;;;;;;;;31.80;62.20;;;;;;5070267;28;20376;-76
2022/06/15 10:21:03;;;;;;;;;;;31.90;58.50;;;;;;5067711;28;19912;-76
2022/06/15 10:23:33;;;;;;;;;;;31.70;58.30;;;;;;5066851;28;20047;-76
2022/06/15 10:25:58;;;;;;;;;;;32.30;65.90;;;;;;5069629;28;20019;-76
2022/06/15 10:28:26;;;;;;;;;;;32.70;62.70;;;;;;5070545;28;20038;-75
2022/06/15 10:30:51;;;;;;;;;;;32.30;61.80;;;;;;5070621;28;20000;-75
2022/06/15 10:33:19;;;;;;;;;;;32.40;58.00;;;;;;5068198;28;20003;-75
2022/06/15 10:35:50;;;;;;;;;;;31.40;65.30;;;;;;5070151;28;20125;-75
2022/06/15 10:38:18;;;;;;;;;;;32.10;67.30;;;;;;5070319;28;20219;-75
2022/06/15 10:40:57;;;;;;;;;;;32.70;62.70;;;;;;5070620;28;19982;-74
2022/06/15 10:43:28;;;;;;;;;;;32.30;55.60;;;;;;5075714;28;20280;-75
2022/06/15 10:46:02;;;;;;;;;;;32.30;55.30;;;;;;5080130;28;19965;-75
2022/06/15 10:48:33;;;;;;;;;;;31.80;54.90;;;;;;5071192;28;19923;-76
2022/06/15 10:51:16;;;;;;;;;;;32.00;55.40;;;;;;5079928;28;20315;-76
2022/06/15 10:53:50;;;;;;;;;;;32.00;54.20;;;;;;5073668;28;19993;-74
2022/06/15 11:02:26;;;;;;;;;;;29.90;54.20;;;;;;5050832;28;19908;-75
2022/06/15 11:05:10;;;;;;;;;;;32.00;63.30;;;;;;5080900;28;19915;-79
2022/06/15 11:07:42;;;;;;;;;;;32.30;51.70;;;;;;5093087;28;19912;-76
2022/06/15 11:10:11;;;;;;;;;;;32.60;56.00;;;;;;5092313;28;19965;-75
2022/06/15 11:12:46;;;;;;;;;;;31.40;55.70;;;;;;5083045;28;19954;-78
2022/06/15 11:15:14;;;;;;;;;;;32.00;54.40;;;;;;5086387;28;19915;-77
2022/06/15 11:18:05;;;;;;;;;;;32.40;57.20;;;;;;5073393;28;19909;-75
2022/06/15 11:20:50;;;;;;;;;;;32.50;54.50;;;;;;5089488;28;19965;-77
2022/06/15 11:23:18;;;;;;;;;;;32.60;51.90;;;;;;5092156;28;20009;-79
2022/06/15 11:25:46;;;;;;;;;;;32.40;56.10;;;;;;5074863;28;19916;-76
2022/06/15 11:28:24;;;;;;;;;;;32.40;55.00;;;;;;5073557;28;19908;-76
2022/06/15 11:30:55;;;;;;;;;;;31.80;53.00;;;;;;5086573;28;19912;-77
2022/06/15 11:33:29;;;;;;;;;;;32.40;57.50;;;;;;5091855;28;19914;-75
2022/06/15 11:36:00;;;;;;;;;;;32.00;53.60;;;;;;5092937;28;20054;-76
2022/06/15 11:38:43;;;;;;;;;;;32.00;54.40;;;;;;5092351;28;20288;-75
2022/06/15 11:41:12;;;;;;;;;;;31.70;55.20;;;;;;5092012;28;19912;-76
2022/06/15 11:43:39;;;;;;;;;;;32.00;51.20;;;;;;5081117;28;20362;-74
2022/06/15 11:46:17;;;;;;;;;;;30.90;54.00;;;;;;5093257;28;19960;-75
2022/06/15 11:48:48;;;;;;;;;;;31.00;55.90;;;;;;5078349;28;20389;-75
2022/06/15 11:51:22;;;;;;;;;;;31.40;52.90;;;;;;5082759;28;20037;-78
2022/06/15 11:54:06;;;;;;;;;;;32.70;59.90;;;;;;5072771;28;19969;-78
2022/06/15 11:56:58;;;;;;;;;;;32.60;51.80;;;;;;5073104;28;19909;-78
2022/06/15 11:59:23;;;;;;;;;;;32.70;56.10;;;;;;5054651;28;20273;-74
2022/06/15 12:01:58;;;;;;;;;;;32.00;53.90;;;;;;5077939;28;19908;-75
2022/06/15 12:04:32;;;;;;;;;;;31.20;53.10;;;;;;5073701;28;19983;-75
2022/06/15 12:07:02;;;;;;;;;;;32.00;52.60;;;;;;5077481;28;20408;-75
2022/06/15 12:09:36;;;;;;;;;;;32.90;51.60;;;;;;5072241;28;20007;-76
2022/06/15 12:14:57;;;;;;;;;;;32.30;53.10;;;;;;5083345;28;20385;-75
2022/06/15 12:17:43;;;;;;;;;;;32.10;55.60;;;;;;5072806;28;19915;-75
2022/06/15 12:20:21;;;;;;;;;;;32.00;49.60;;;;;;5084879;28;19920;-78
2022/06/15 12:22:46;;;;;;;;;;;32.40;52.40;;;;;;5072215;28;20567;-75
2022/06/15 12:25:32;;;;;;;;;;;31.90;52.60;;;;;;5074719;28;20023;-75
2022/06/15 12:28:04;;;;;;;;;;;31.80;54.60;;;;;;5091346;28;19949;-75
2022/06/15 12:30:48;;;;;;;;;;;32.20;51.30;;;;;;5091738;28;19915;-75
2022/06/15 12:33:32;;;;;;;;;;;33.70;49.30;;;;;;5090917;28;19908;-76
2022/06/15 12:36:00;;;;;;;;;;;35.20;50.60;;;;;;5091618;28;20062;-76
2022/06/15 12:38:45;;;;;;;;;;;36.50;46.60;;;;;;5091480;28;19912;-75
2022/06/15 12:43:57;;;;;;;;;;;37.60;43.40;;;;;;5078537;28;20011;-75
2022/06/15 12:46:24;;;;;;;;;;;37.80;37.80;;;;;;5072872;28;19919;-75
2022/06/15 12:48:56;;;;;;;;;;;37.50;43.60;;;;;;5070856;28;19915;-75
2022/06/15 12:51:24;;;;;;;;;;;37.60;37.90;;;;;;5084086;28;19915;-78
2022/06/15 12:53:58;;;;;;;;;;;36.70;42.10;;;;;;5072004;28;19915;-75
2022/06/15 12:56:32;;;;;;;;;;;38.20;42.90;;;;;;5072379;28;20358;-76
2022/06/15 12:59:04;;;;;;;;;;;39.20;41.10;;;;;;5071597;28;19915;-77
2022/06/15 13:01:37;;;;;;;;;;;39.40;41.20;;;;;;5070044;28;19970;-75
2022/06/15 13:04:05;;;;;;;;;;;38.60;41.30;;;;;;5071533;28;19916;-76
2022/06/15 13:06:33;;;;;;;;;;;39.10;43.10;;;;;;5071715;28;19931;-76
2022/06/15 13:08:58;;;;;;;;;;;38.80;39.10;;;;;;5071790;28;19913;-76
2022/06/15 13:11:25;;;;;;;;;;;39.10;40.40;;;;;;5071171;28;20049;-76
2022/06/15 13:13:52;;;;;;;;;;;39.60;40.70;;;;;;5085700;28;19908;-75
2022/06/15 13:16:33;;;;;;;;;;;38.70;40.80;;;;;;5072473;28;20015;-75
2022/06/15 13:18:59;;;;;;;;;;;38.40;39.90;;;;;;5084462;28;19977;-75
2022/06/15 13:21:29;;;;;;;;;;;38.80;41.20;;;;;;5090150;28;20437;-75
2022/06/15 13:24:00;;;;;;;;;;;37.80;40.90;;;;;;5079689;28;19908;-76
2022/06/15 13:26:46;;;;;;;;;;;37.60;43.60;;;;;;5085697;28;20288;-75
2022/06/15 13:29:11;;;;;;;;;;;38.70;40.40;;;;;;5079990;28;19908;-76
2022/06/15 13:31:42;;;;;;;;;;;38.20;38.00;;;;;;5070908;28;20353;-76
2022/06/15 13:34:09;;;;;;;;;;;37.90;40.00;;;;;;5069741;28;19916;-75
2022/06/15 13:36:36;;;;;;;;;;;37.60;39.60;;;;;;5071524;28;19916;-76
2022/06/15 13:39:21;;;;;;;;;;;38.40;40.30;;;;;;5070998;28;20059;-75
2022/06/15 13:41:47;;;;;;;;;;;36.80;40.30;;;;;;5071746;28;20005;-80
2022/06/15 13:44:14;;;;;;;;;;;37.10;41.20;;;;;;5074074;28;19948;-76
2022/06/15 13:46:41;;;;;;;;;;;36.90;46.20;;;;;;5081413;28;19909;-76
2022/06/15 13:49:14;;;;;;;;;;;38.30;44.00;;;;;;5086711;28;19915;-76
2022/06/15 13:52:00;;;;;;;;;;;37.10;42.40;;;;;;5083964;28;19908;-77
2022/06/15 13:54:28;;;;;;;;;;;37.40;42.60;;;;;;5093622;28;19961;-76
2022/06/15 13:56:59;;;;;;;;;;;37.70;43.10;;;;;;5086803;28;19908;-76
2022/06/15 13:59:34;;;;;;;;;;;38.00;42.50;;;;;;5089960;28;19912;-78
2022/06/15 14:02:24;;;;;;;;;;;37.90;41.60;;;;;;5089652;28;19915;-77
2022/06/15 14:05:09;;;;;;;;;;;37.20;40.80;;;;;;5081227;28;19944;-76
2022/06/15 14:07:50;;;;;;;;;;;37.50;44.00;;;;;;5069879;28;19912;-76
2022/06/15 14:10:22;;;;;;;;;;;38.00;39.70;;;;;;5070849;28;20435;-77
2022/06/15 14:13:06;;;;;;;;;;;37.80;42.10;;;;;;5070829;28;20361;-76
2022/06/15 14:15:50;;;;;;;;;;;36.90;41.50;;;;;;5078262;28;20296;-76
2022/06/15 14:18:31;;;;;;;;;;;37.00;44.20;;;;;;5069815;28;19912;-76
2022/06/15 14:21:09;;;;;;;;;;;36.60;44.80;;;;;;5070776;28;19913;-76
2022/06/15 14:23:36;;;;;;;;;;;36.40;43.50;;;;;;5080977;28;19916;-76
2022/06/15 14:26:02;;;;;;;;;;;36.70;45.50;;;;;;5081602;28;19919;-75
2022/06/15 14:28:29;;;;;;;;;;;36.30;42.20;;;;;;5075373;28;20011;-78
2022/06/15 14:31:16;;;;;;;;;;;36.50;41.60;;;;;;5074579;28;19916;-75
2022/06/15 14:33:41;;;;;;;;;;;35.50;48.80;;;;;;5089578;28;20367;-75
2022/06/15 14:36:11;;;;;;;;;;;36.70;44.50;;;;;;5094477;28;19960;-76
2022/06/15 14:38:38;;;;;;;;;;;36.70;45.70;;;;;;5085537;28;19908;-76
2022/06/15 14:41:18;;;;;;;;;;;37.00;44.60;;;;;;5074094;28;19966;-76
2022/06/15 14:43:44;;;;;;;;;;;36.90;46.90;;;;;;5084256;28;19908;-76
2022/06/15 14:46:13;;;;;;;;;;;36.60;46.10;;;;;;5089488;28;19959;-75
2022/06/15 14:48:39;;;;;;;;;;;35.30;46.70;;;;;;5077711;28;19913;-75